Lake Annette, Missouri
Current Conditions -  °F | °C
As of 4:10 AM on Saturday 25 Oct 2014 (Local Time) from KOJC Reporting Station
Moderate Fog Moderate Fog  
Wind Chill: 58°   Ceiling: 300
Heat Index: 58°   Visibility: 0.25mi
Dew Point: 58°   Wind: 0mph
Humidity: 100%   Direction: NA
Pressure: 30.01"   Gusts: NA
Location:  38.6151°N, 94.4966°W
Report Text: KOJC 250910Z AUTO 00000KT 1/4SM FG VV003 14/14 A3001 RMK AO2 T01440144
Loading
Personal Weather Stations






























Interactive Weather Map
Tropical Storm Tracking
New forecast layout! Learn more

10-Day Weather Forecast

Advertisements
Track Severe Weather on mobile